sensor_id;sensor_type;location;lat;lon;timestamp;P1;durP1;ratioP1;P2;durP2;ratioP2
84482;SDS011;74703;51.284;22.590;2024-02-15T00:03:33;74.28;;;37.35;;
84482;SDS011;74703;51.284;22.590;2024-02-15T00:08:35;69.88;;;35.10;;
84482;SDS011;74703;51.284;22.590;2024-02-15T00:13:36;72.43;;;33.80;;
84482;SDS011;74703;51.284;22.590;2024-02-15T00:18:36;79.88;;;37.67;;
84482;SDS011;74703;51.284;22.590;2024-02-15T00:23:37;73.95;;;37.97;;
84482;SDS011;74703;51.284;22.590;2024-02-15T00:28:37;66.00;;;33.70;;
84482;SDS011;74703;51.284;22.590;2024-02-15T00:33:38;62.08;;;31.33;;
84482;SDS011;74703;51.284;22.590;2024-02-15T00:38:39;52.20;;;24.17;;
84482;SDS011;74703;51.284;22.590;2024-02-15T00:43:39;52.35;;;25.23;;
84482;SDS011;74703;51.284;22.590;2024-02-15T00:48:40;40.90;;;20.52;;
84482;SDS011;74703;51.284;22.590;2024-02-15T00:53:41;43.92;;;21.63;;
84482;SDS011;74703;51.284;22.590;2024-02-15T00:58:41;37.55;;;18.77;;
84482;SDS011;74703;51.284;22.590;2024-02-15T01:03:42;33.15;;;18.50;;
84482;SDS011;74703;51.284;22.590;2024-02-15T01:08:42;35.55;;;17.92;;
84482;SDS011;74703;51.284;22.590;2024-02-15T01:13:43;45.42;;;21.27;;
84482;SDS011;74703;51.284;22.590;2024-02-15T01:18:44;42.75;;;22.42;;
84482;SDS011;74703;51.284;22.590;2024-02-15T01:23:44;50.67;;;24.92;;
84482;SDS011;74703;51.284;22.590;2024-02-15T01:28:46;42.63;;;22.08;;
84482;SDS011;74703;51.284;22.590;2024-02-15T01:33:47;32.30;;;16.80;;
84482;SDS011;74703;51.284;22.590;2024-02-15T01:38:48;29.92;;;16.50;;
84482;SDS011;74703;51.284;22.590;2024-02-15T01:43:49;34.30;;;18.02;;
84482;SDS011;74703;51.284;22.590;2024-02-15T01:48:50;31.15;;;16.02;;
84482;SDS011;74703;51.284;22.590;2024-02-15T01:53:51;30.35;;;17.42;;
84482;SDS011;74703;51.284;22.590;2024-02-15T01:58:53;26.45;;;16.27;;
84482;SDS011;74703;51.284;22.590;2024-02-15T02:03:53;20.92;;;12.93;;
84482;SDS011;74703;51.284;22.590;2024-02-15T02:08:55;22.95;;;12.65;;
84482;SDS011;74703;51.284;22.590;2024-02-15T02:13:56;22.13;;;10.18;;
84482;SDS011;74703;51.284;22.590;2024-02-15T02:18:57;17.42;;;9.80;;
84482;SDS011;74703;51.284;22.590;2024-02-15T02:23:59;12.77;;;7.40;;
84482;SDS011;74703;51.284;22.590;2024-02-15T02:29:02;11.98;;;7.38;;
84482;SDS011;74703;51.284;22.590;2024-02-15T02:34:07;10.45;;;6.40;;
84482;SDS011;74703;51.284;22.590;2024-02-15T02:39:08;10.75;;;6.25;;
84482;SDS011;74703;51.284;22.590;2024-02-15T02:44:08;11.05;;;6.88;;
84482;SDS011;74703;51.284;22.590;2024-02-15T02:49:09;10.55;;;6.18;;
84482;SDS011;74703;51.284;22.590;2024-02-15T02:54:09;13.90;;;6.65;;
84482;SDS011;74703;51.284;22.590;2024-02-15T02:59:11;13.32;;;7.32;;
84482;SDS011;74703;51.284;22.590;2024-02-15T03:04:14;13.05;;;6.57;;
84482;SDS011;74703;51.284;22.590;2024-02-15T03:09:17;11.50;;;5.45;;
84482;SDS011;74703;51.284;22.590;2024-02-15T03:14:17;11.68;;;5.90;;
84482;SDS011;74703;51.284;22.590;2024-02-15T03:19:18;8.90;;;5.10;;
84482;SDS011;74703;51.284;22.590;2024-02-15T03:24:18;13.05;;;6.55;;
84482;SDS011;74703;51.284;22.590;2024-02-15T03:29:19;12.15;;;5.97;;
84482;SDS011;74703;51.284;22.590;2024-02-15T03:34:20;9.13;;;4.63;;
84482;SDS011;74703;51.284;22.590;2024-02-15T03:39:21;7.80;;;4.47;;
84482;SDS011;74703;51.284;22.590;2024-02-15T03:44:23;7.57;;;5.03;;
84482;SDS011;74703;51.284;22.590;2024-02-15T03:49:26;6.97;;;4.95;;
84482;SDS011;74703;51.284;22.590;2024-02-15T03:54:26;11.15;;;5.40;;
84482;SDS011;74703;51.284;22.590;2024-02-15T03:59:30;9.40;;;4.75;;
84482;SDS011;74703;51.284;22.590;2024-02-15T04:04:32;9.48;;;4.75;;
84482;SDS011;74703;51.284;22.590;2024-02-15T04:09:33;8.85;;;5.60;;
84482;SDS011;74703;51.284;22.590;2024-02-15T04:14:35;10.25;;;5.03;;
84482;SDS011;74703;51.284;22.590;2024-02-15T04:19:36;8.80;;;5.05;;
84482;SDS011;74703;51.284;22.590;2024-02-15T04:24:37;9.48;;;6.07;;
84482;SDS011;74703;51.284;22.590;2024-02-15T04:29:41;11.73;;;6.15;;
84482;SDS011;74703;51.284;22.590;2024-02-15T04:34:44;10.52;;;5.32;;
84482;SDS011;74703;51.284;22.590;2024-02-15T04:39:46;11.48;;;5.13;;
84482;SDS011;74703;51.284;22.590;2024-02-15T04:44:47;11.55;;;4.80;;
84482;SDS011;74703;51.284;22.590;2024-02-15T04:49:48;13.85;;;6.10;;
84482;SDS011;74703;51.284;22.590;2024-02-15T04:54:49;12.65;;;6.15;;
84482;SDS011;74703;51.284;22.590;2024-02-15T04:59:49;8.18;;;5.22;;
84482;SDS011;74703;51.284;22.590;2024-02-15T05:04:50;9.98;;;6.43;;
84482;SDS011;74703;51.284;22.590;2024-02-15T05:09:56;8.43;;;5.57;;
84482;SDS011;74703;51.284;22.590;2024-02-15T05:14:56;11.82;;;7.30;;
84482;SDS011;74703;51.284;22.590;2024-02-15T05:19:57;12.68;;;6.10;;
84482;SDS011;74703;51.284;22.590;2024-02-15T05:25:00;13.90;;;6.20;;
84482;SDS011;74703;51.284;22.590;2024-02-15T05:30:02;8.68;;;5.57;;
84482;SDS011;74703;51.284;22.590;2024-02-15T05:35:10;14.15;;;5.80;;
84482;SDS011;74703;51.284;22.590;2024-02-15T05:40:14;11.77;;;6.10;;
84482;SDS011;74703;51.284;22.590;2024-02-15T05:50:25;12.82;;;6.78;;
84482;SDS011;74703;51.284;22.590;2024-02-15T05:55:27;8.93;;;5.65;;
84482;SDS011;74703;51.284;22.590;2024-02-15T06:00:29;13.88;;;7.30;;
84482;SDS011;74703;51.284;22.590;2024-02-15T06:05:30;13.40;;;8.20;;
84482;SDS011;74703;51.284;22.590;2024-02-15T06:10:31;20.00;;;8.70;;
84482;SDS011;74703;51.284;22.590;2024-02-15T06:15:32;19.13;;;9.15;;
84482;SDS011;74703;51.284;22.590;2024-02-15T06:20:34;18.67;;;9.55;;
84482;SDS011;74703;51.284;22.590;2024-02-15T06:25:35;17.48;;;9.52;;
84482;SDS011;74703;51.284;22.590;2024-02-15T06:30:36;18.88;;;10.60;;
84482;SDS011;74703;51.284;22.590;2024-02-15T06:35:54;18.67;;;8.68;;
84482;SDS011;74703;51.284;22.590;2024-02-15T06:41:13;18.55;;;8.50;;
84482;SDS011;74703;51.284;22.590;2024-02-15T06:46:14;11.45;;;6.97;;
84482;SDS011;74703;51.284;22.590;2024-02-15T06:51:15;11.93;;;5.00;;
84482;SDS011;74703;51.284;22.590;2024-02-15T06:56:15;10.20;;;5.30;;
84482;SDS011;74703;51.284;22.590;2024-02-15T07:01:16;6.97;;;4.95;;
84482;SDS011;74703;51.284;22.590;2024-02-15T07:06:17;6.75;;;4.97;;
84482;SDS011;74703;51.284;22.590;2024-02-15T07:11:19;9.13;;;5.00;;
84482;SDS011;74703;51.284;22.590;2024-02-15T07:16:20;14.55;;;4.93;;
84482;SDS011;74703;51.284;22.590;2024-02-15T07:21:20;11.48;;;4.70;;
84482;SDS011;74703;51.284;22.590;2024-02-15T07:26:27;11.43;;;4.32;;
84482;SDS011;74703;51.284;22.590;2024-02-15T07:31:27;7.60;;;4.75;;
84482;SDS011;74703;51.284;22.590;2024-02-15T07:36:29;10.50;;;4.28;;
84482;SDS011;74703;51.284;22.590;2024-02-15T07:41:30;11.90;;;6.00;;
84482;SDS011;74703;51.284;22.590;2024-02-15T07:46:32;8.50;;;4.40;;
84482;SDS011;74703;51.284;22.590;2024-02-15T07:51:34;7.70;;;4.30;;
84482;SDS011;74703;51.284;22.590;2024-02-15T07:56:36;8.45;;;4.72;;
84482;SDS011;74703;51.284;22.590;2024-02-15T08:01:39;7.22;;;4.75;;
84482;SDS011;74703;51.284;22.590;2024-02-15T08:06:40;7.28;;;4.57;;
84482;SDS011;74703;51.284;22.590;2024-02-15T08:11:41;7.72;;;4.22;;
84482;SDS011;74703;51.284;22.590;2024-02-15T08:16:42;8.68;;;4.65;;
84482;SDS011;74703;51.284;22.590;2024-02-15T08:21:43;13.30;;;4.50;;
84482;SDS011;74703;51.284;22.590;2024-02-15T08:26:46;7.85;;;4.07;;
84482;SDS011;74703;51.284;22.590;2024-02-15T08:31:47;10.10;;;4.15;;
84482;SDS011;74703;51.284;22.590;2024-02-15T08:36:49;8.00;;;4.55;;
84482;SDS011;74703;51.284;22.590;2024-02-15T08:41:50;9.70;;;4.60;;
84482;SDS011;74703;51.284;22.590;2024-02-15T08:46:52;11.75;;;4.78;;
84482;SDS011;74703;51.284;22.590;2024-02-15T08:51:52;7.97;;;4.50;;
84482;SDS011;74703;51.284;22.590;2024-02-15T08:56:53;7.85;;;5.28;;
84482;SDS011;74703;51.284;22.590;2024-02-15T09:01:53;12.13;;;5.28;;
84482;SDS011;74703;51.284;22.590;2024-02-15T09:06:56;10.43;;;5.40;;
84482;SDS011;74703;51.284;22.590;2024-02-15T09:11:57;10.80;;;5.97;;
84482;SDS011;74703;51.284;22.590;2024-02-15T09:16:57;7.88;;;5.25;;
84482;SDS011;74703;51.284;22.590;2024-02-15T09:21:58;8.20;;;4.20;;
84482;SDS011;74703;51.284;22.590;2024-02-15T09:27:00;8.18;;;4.15;;
84482;SDS011;74703;51.284;22.590;2024-02-15T09:32:01;6.20;;;4.18;;
84482;SDS011;74703;51.284;22.590;2024-02-15T09:37:02;8.98;;;4.95;;
84482;SDS011;74703;51.284;22.590;2024-02-15T09:42:03;13.13;;;5.47;;
84482;SDS011;74703;51.284;22.590;2024-02-15T09:47:04;10.95;;;5.30;;
84482;SDS011;74703;51.284;22.590;2024-02-15T09:52:07;11.95;;;4.63;;
84482;SDS011;74703;51.284;22.590;2024-02-15T09:57:15;9.23;;;4.43;;
84482;SDS011;74703;51.284;22.590;2024-02-15T10:02:18;8.25;;;4.65;;
84482;SDS011;74703;51.284;22.590;2024-02-15T10:07:19;12.65;;;4.45;;
84482;SDS011;74703;51.284;22.590;2024-02-15T10:12:19;9.88;;;4.82;;
84482;SDS011;74703;51.284;22.590;2024-02-15T10:17:23;11.27;;;4.82;;
84482;SDS011;74703;51.284;22.590;2024-02-15T10:22:23;14.30;;;5.10;;
84482;SDS011;74703;51.284;22.590;2024-02-15T10:27:24;12.20;;;4.75;;
84482;SDS011;74703;51.284;22.590;2024-02-15T10:32:26;9.23;;;4.85;;
84482;SDS011;74703;51.284;22.590;2024-02-15T10:37:34;11.38;;;5.72;;
84482;SDS011;74703;51.284;22.590;2024-02-15T10:42:36;10.00;;;4.45;;
84482;SDS011;74703;51.284;22.590;2024-02-15T10:47:37;9.50;;;4.97;;
84482;SDS011;74703;51.284;22.590;2024-02-15T10:57:56;10.95;;;5.72;;
84482;SDS011;74703;51.284;22.590;2024-02-15T11:03:04;10.82;;;5.32;;
84482;SDS011;74703;51.284;22.590;2024-02-15T11:08:08;9.10;;;4.50;;
84482;SDS011;74703;51.284;22.590;2024-02-15T11:13:10;11.45;;;4.53;;
84482;SDS011;74703;51.284;22.590;2024-02-15T11:18:11;12.38;;;4.95;;
84482;SDS011;74703;51.284;22.590;2024-02-15T11:23:11;9.25;;;5.35;;
84482;SDS011;74703;51.284;22.590;2024-02-15T11:38:32;12.02;;;5.00;;
84482;SDS011;74703;51.284;22.590;2024-02-15T11:48:45;6.18;;;3.78;;
84482;SDS011;74703;51.284;22.590;2024-02-15T11:53:57;11.95;;;4.32;;
84482;SDS011;74703;51.284;22.590;2024-02-15T11:59:07;7.53;;;4.70;;
84482;SDS011;74703;51.284;22.590;2024-02-15T12:04:08;5.97;;;4.05;;
84482;SDS011;74703;51.284;22.590;2024-02-15T12:09:27;13.15;;;3.67;;
84482;SDS011;74703;51.284;22.590;2024-02-15T12:14:46;7.60;;;4.65;;
84482;SDS011;74703;51.284;22.590;2024-02-15T12:20:04;7.43;;;3.95;;
84482;SDS011;74703;51.284;22.590;2024-02-15T12:25:15;12.43;;;5.30;;
84482;SDS011;74703;51.284;22.590;2024-02-15T12:30:16;8.23;;;3.42;;
84482;SDS011;74703;51.284;22.590;2024-02-15T12:35:22;5.90;;;3.70;;
84482;SDS011;74703;51.284;22.590;2024-02-15T12:40:24;8.77;;;4.05;;
84482;SDS011;74703;51.284;22.590;2024-02-15T12:45:31;8.15;;;4.10;;
84482;SDS011;74703;51.284;22.590;2024-02-15T12:50:32;9.38;;;4.10;;
84482;SDS011;74703;51.284;22.590;2024-02-15T12:55:34;6.68;;;4.05;;
84482;SDS011;74703;51.284;22.590;2024-02-15T13:00:36;9.15;;;5.68;;
84482;SDS011;74703;51.284;22.590;2024-02-15T13:05:39;9.50;;;5.13;;
84482;SDS011;74703;51.284;22.590;2024-02-15T13:10:40;12.57;;;5.22;;
84482;SDS011;74703;51.284;22.590;2024-02-15T13:15:40;8.93;;;6.45;;
84482;SDS011;74703;51.284;22.590;2024-02-15T13:20:41;11.50;;;5.28;;
84482;SDS011;74703;51.284;22.590;2024-02-15T13:25:42;21.90;;;6.28;;
84482;SDS011;74703;51.284;22.590;2024-02-15T13:30:43;9.15;;;4.35;;
84482;SDS011;74703;51.284;22.590;2024-02-15T13:35:45;7.35;;;3.80;;
84482;SDS011;74703;51.284;22.590;2024-02-15T13:40:45;5.88;;;3.75;;
84482;SDS011;74703;51.284;22.590;2024-02-15T13:45:49;11.95;;;5.40;;
84482;SDS011;74703;51.284;22.590;2024-02-15T13:50:52;10.38;;;4.32;;
84482;SDS011;74703;51.284;22.590;2024-02-15T13:55:53;12.65;;;4.63;;
84482;SDS011;74703;51.284;22.590;2024-02-15T14:00:53;10.73;;;5.25;;
84482;SDS011;74703;51.284;22.590;2024-02-15T14:05:55;10.05;;;5.70;;
84482;SDS011;74703;51.284;22.590;2024-02-15T14:10:55;13.15;;;5.70;;
84482;SDS011;74703;51.284;22.590;2024-02-15T14:15:56;14.85;;;6.80;;
84482;SDS011;74703;51.284;22.590;2024-02-15T14:20:57;14.02;;;7.28;;
84482;SDS011;74703;51.284;22.590;2024-02-15T14:26:00;11.00;;;6.30;;
84482;SDS011;74703;51.284;22.590;2024-02-15T14:31:02;13.70;;;7.32;;
84482;SDS011;74703;51.284;22.590;2024-02-15T14:36:21;12.18;;;7.13;;
84482;SDS011;74703;51.284;22.590;2024-02-15T14:41:22;20.35;;;8.52;;
84482;SDS011;74703;51.284;22.590;2024-02-15T14:46:23;16.00;;;7.80;;
84482;SDS011;74703;51.284;22.590;2024-02-15T14:51:24;9.82;;;5.28;;
84482;SDS011;74703;51.284;22.590;2024-02-15T14:56:25;9.80;;;5.47;;
84482;SDS011;74703;51.284;22.590;2024-02-15T15:01:26;15.90;;;5.50;;
84482;SDS011;74703;51.284;22.590;2024-02-15T15:06:27;9.20;;;5.35;;
84482;SDS011;74703;51.284;22.590;2024-02-15T15:11:46;10.00;;;5.47;;
84482;SDS011;74703;51.284;22.590;2024-02-15T15:17:05;11.90;;;5.07;;
84482;SDS011;74703;51.284;22.590;2024-02-15T15:22:05;10.55;;;4.80;;
84482;SDS011;74703;51.284;22.590;2024-02-15T15:27:07;12.38;;;5.93;;
84482;SDS011;74703;51.284;22.590;2024-02-15T15:32:08;14.30;;;5.60;;
84482;SDS011;74703;51.284;22.590;2024-02-15T15:37:08;11.38;;;5.82;;
84482;SDS011;74703;51.284;22.590;2024-02-15T15:42:12;10.55;;;6.20;;
84482;SDS011;74703;51.284;22.590;2024-02-15T15:47:12;10.75;;;6.40;;
84482;SDS011;74703;51.284;22.590;2024-02-15T15:52:13;14.73;;;6.10;;
84482;SDS011;74703;51.284;22.590;2024-02-15T15:57:14;13.23;;;6.90;;
84482;SDS011;74703;51.284;22.590;2024-02-15T16:02:14;9.27;;;6.25;;
84482;SDS011;74703;51.284;22.590;2024-02-15T16:07:17;13.18;;;6.82;;
84482;SDS011;74703;51.284;22.590;2024-02-15T16:12:18;11.10;;;6.32;;
84482;SDS011;74703;51.284;22.590;2024-02-15T16:17:20;13.45;;;6.63;;
84482;SDS011;74703;51.284;22.590;2024-02-15T16:22:20;17.10;;;6.80;;
84482;SDS011;74703;51.284;22.590;2024-02-15T16:27:21;18.50;;;7.03;;
84482;SDS011;74703;51.284;22.590;2024-02-15T16:32:22;13.95;;;6.90;;
84482;SDS011;74703;51.284;22.590;2024-02-15T16:37:23;12.13;;;6.53;;
84482;SDS011;74703;51.284;22.590;2024-02-15T16:42:25;13.57;;;6.70;;
84482;SDS011;74703;51.284;22.590;2024-02-15T16:47:27;12.82;;;6.80;;
84482;SDS011;74703;51.284;22.590;2024-02-15T16:52:28;14.68;;;7.70;;
84482;SDS011;74703;51.284;22.590;2024-02-15T16:57:30;16.67;;;7.35;;
84482;SDS011;74703;51.284;22.590;2024-02-15T17:02:32;13.75;;;7.75;;
84482;SDS011;74703;51.284;22.590;2024-02-15T17:07:33;14.18;;;7.75;;
84482;SDS011;74703;51.284;22.590;2024-02-15T17:12:35;22.30;;;7.90;;
84482;SDS011;74703;51.284;22.590;2024-02-15T17:17:36;16.98;;;7.78;;
84482;SDS011;74703;51.284;22.590;2024-02-15T17:22:37;17.88;;;8.48;;
84482;SDS011;74703;51.284;22.590;2024-02-15T17:27:38;13.45;;;7.30;;
84482;SDS011;74703;51.284;22.590;2024-02-15T17:32:42;14.82;;;7.85;;
84482;SDS011;74703;51.284;22.590;2024-02-15T17:37:43;13.95;;;7.53;;
84482;SDS011;74703;51.284;22.590;2024-02-15T17:42:44;20.27;;;8.70;;
84482;SDS011;74703;51.284;22.590;2024-02-15T17:47:45;13.02;;;7.38;;
84482;SDS011;74703;51.284;22.590;2024-02-15T17:52:47;13.90;;;8.18;;
84482;SDS011;74703;51.284;22.590;2024-02-15T17:57:48;17.73;;;7.95;;
84482;SDS011;74703;51.284;22.590;2024-02-15T18:02:50;14.48;;;8.32;;
84482;SDS011;74703;51.284;22.590;2024-02-15T18:07:51;18.95;;;9.60;;
84482;SDS011;74703;51.284;22.590;2024-02-15T18:12:52;17.08;;;9.80;;
84482;SDS011;74703;51.284;22.590;2024-02-15T18:17:53;17.95;;;9.35;;
84482;SDS011;74703;51.284;22.590;2024-02-15T18:22:55;17.77;;;9.70;;
84482;SDS011;74703;51.284;22.590;2024-02-15T18:27:55;18.98;;;9.02;;
84482;SDS011;74703;51.284;22.590;2024-02-15T18:32:56;19.25;;;10.02;;
84482;SDS011;74703;51.284;22.590;2024-02-15T18:37:57;22.48;;;11.23;;
84482;SDS011;74703;51.284;22.590;2024-02-15T18:42:58;27.25;;;14.15;;
84482;SDS011;74703;51.284;22.590;2024-02-15T18:47:59;20.88;;;11.07;;
84482;SDS011;74703;51.284;22.590;2024-02-15T18:53:00;20.98;;;9.88;;
84482;SDS011;74703;51.284;22.590;2024-02-15T18:58:02;21.98;;;11.65;;
84482;SDS011;74703;51.284;22.590;2024-02-15T19:03:03;21.45;;;11.50;;
84482;SDS011;74703;51.284;22.590;2024-02-15T19:08:04;22.20;;;11.68;;
84482;SDS011;74703;51.284;22.590;2024-02-15T19:13:04;26.75;;;11.25;;
84482;SDS011;74703;51.284;22.590;2024-02-15T19:18:06;23.80;;;11.57;;
84482;SDS011;74703;51.284;22.590;2024-02-15T19:23:06;23.58;;;11.95;;
84482;SDS011;74703;51.284;22.590;2024-02-15T19:28:07;25.48;;;12.90;;
84482;SDS011;74703;51.284;22.590;2024-02-15T19:33:08;25.67;;;14.20;;
84482;SDS011;74703;51.284;22.590;2024-02-15T19:38:09;31.92;;;15.95;;
84482;SDS011;74703;51.284;22.590;2024-02-15T19:43:10;35.35;;;17.17;;
84482;SDS011;74703;51.284;22.590;2024-02-15T19:48:11;40.13;;;17.25;;
84482;SDS011;74703;51.284;22.590;2024-02-15T19:53:12;43.28;;;19.45;;
84482;SDS011;74703;51.284;22.590;2024-02-15T19:58:14;38.92;;;19.55;;
84482;SDS011;74703;51.284;22.590;2024-02-15T20:03:14;40.65;;;19.75;;
84482;SDS011;74703;51.284;22.590;2024-02-15T20:08:15;44.95;;;22.10;;
84482;SDS011;74703;51.284;22.590;2024-02-15T20:13:15;47.28;;;22.30;;
84482;SDS011;74703;51.284;22.590;2024-02-15T20:18:16;51.35;;;23.08;;
84482;SDS011;74703;51.284;22.590;2024-02-15T20:23:16;48.95;;;23.50;;
84482;SDS011;74703;51.284;22.590;2024-02-15T20:28:17;40.88;;;21.65;;
84482;SDS011;74703;51.284;22.590;2024-02-15T20:33:18;43.42;;;21.92;;
84482;SDS011;74703;51.284;22.590;2024-02-15T20:38:23;43.47;;;21.63;;
84482;SDS011;74703;51.284;22.590;2024-02-15T20:43:28;43.08;;;21.48;;
84482;SDS011;74703;51.284;22.590;2024-02-15T20:48:33;38.78;;;20.35;;
84482;SDS011;74703;51.284;22.590;2024-02-15T20:53:33;50.05;;;22.85;;
84482;SDS011;74703;51.284;22.590;2024-02-15T20:58:34;50.60;;;23.15;;
84482;SDS011;74703;51.284;22.590;2024-02-15T21:03:37;42.03;;;21.30;;
84482;SDS011;74703;51.284;22.590;2024-02-15T21:08:39;38.65;;;19.63;;
84482;SDS011;74703;51.284;22.590;2024-02-15T21:13:41;39.05;;;19.40;;
84482;SDS011;74703;51.284;22.590;2024-02-15T21:18:44;44.78;;;20.98;;
84482;SDS011;74703;51.284;22.590;2024-02-15T21:23:46;38.60;;;18.60;;
84482;SDS011;74703;51.284;22.590;2024-02-15T21:28:48;34.08;;;17.85;;
84482;SDS011;74703;51.284;22.590;2024-02-15T21:33:50;32.05;;;16.67;;
84482;SDS011;74703;51.284;22.590;2024-02-15T21:38:54;32.50;;;16.70;;
84482;SDS011;74703;51.284;22.590;2024-02-15T21:43:57;31.75;;;17.23;;
84482;SDS011;74703;51.284;22.590;2024-02-15T21:48:58;31.10;;;17.90;;
84482;SDS011;74703;51.284;22.590;2024-02-15T21:54:00;29.02;;;15.02;;
84482;SDS011;74703;51.284;22.590;2024-02-15T21:59:01;34.03;;;16.42;;
84482;SDS011;74703;51.284;22.590;2024-02-15T22:04:03;31.90;;;17.33;;
84482;SDS011;74703;51.284;22.590;2024-02-15T22:09:04;28.63;;;14.70;;
84482;SDS011;74703;51.284;22.590;2024-02-15T22:14:05;28.38;;;14.15;;
84482;SDS011;74703;51.284;22.590;2024-02-15T22:19:10;27.52;;;14.50;;
84482;SDS011;74703;51.284;22.590;2024-02-15T22:24:11;28.27;;;13.10;;
84482;SDS011;74703;51.284;22.590;2024-02-15T22:29:12;26.92;;;15.02;;
84482;SDS011;74703;51.284;22.590;2024-02-15T22:34:14;23.20;;;13.25;;
84482;SDS011;74703;51.284;22.590;2024-02-15T22:39:15;29.13;;;13.65;;
84482;SDS011;74703;51.284;22.590;2024-02-15T22:44:16;28.13;;;14.02;;
84482;SDS011;74703;51.284;22.590;2024-02-15T22:49:18;32.20;;;15.85;;
84482;SDS011;74703;51.284;22.590;2024-02-15T22:54:19;23.98;;;12.27;;
84482;SDS011;74703;51.284;22.590;2024-02-15T22:59:20;27.27;;;12.05;;
84482;SDS011;74703;51.284;22.590;2024-02-15T23:04:21;27.42;;;12.73;;
84482;SDS011;74703;51.284;22.590;2024-02-15T23:09:21;26.52;;;12.43;;
84482;SDS011;74703;51.284;22.590;2024-02-15T23:14:22;22.88;;;12.15;;
84482;SDS011;74703;51.284;22.590;2024-02-15T23:19:23;24.08;;;13.50;;
84482;SDS011;74703;51.284;22.590;2024-02-15T23:24:24;24.65;;;12.65;;
84482;SDS011;74703;51.284;22.590;2024-02-15T23:29:24;25.10;;;13.25;;
84482;SDS011;74703;51.284;22.590;2024-02-15T23:34:26;31.80;;;15.45;;
84482;SDS011;74703;51.284;22.590;2024-02-15T23:39:27;25.33;;;12.00;;
84482;SDS011;74703;51.284;22.590;2024-02-15T23:44:56;23.27;;;12.23;;
84482;SDS011;74703;51.284;22.590;2024-02-15T23:49:57;24.10;;;12.43;;
84482;SDS011;74703;51.284;22.590;2024-02-15T23:54:57;29.65;;;12.23;;
84482;SDS011;74703;51.284;22.590;2024-02-15T23:59:58;24.70;;;13.35;;
